Time;durP1;ratioP1;P1;durP2;ratioP2;P2;SDS_P1;SDS_P2;PMS_P1;PMS_P2;Temp;Humidity;BMP_temperature;BMP_pressure;BME280_temperature;BME280_humidity;BME280_pressure;Samples;Min_cycle;Max_cycle;Signal;HPM_P1;HPM_P2
2023/05/13 00:02:24;;;;;;;7.55;2.30;;;;;;;9.82;64.13;94261.25;5003994;28;20022;-85
2023/05/13 00:04:50;;;;;;;8.45;2.00;;;;;;;9.85;64.13;94254.56;5004115;28;20034;-82
2023/05/13 00:07:15;;;;;;;5.25;2.20;;;;;;;9.88;64.82;94253.19;5003664;28;20069;-83
2023/05/13 00:09:41;;;;;;;4.25;2.42;;;;;;;9.90;65.17;94272.31;5003617;28;20325;-84
2023/05/13 00:12:06;;;;;;;3.10;1.83;;;;;;;9.90;65.78;94272.31;4986402;28;20027;-84
2023/05/13 00:14:32;;;;;;;8.15;2.67;;;;;;;9.79;67.31;94277.03;5003805;28;20022;-84
2023/05/13 00:16:58;;;;;;;3.88;2.47;;;;;;;9.56;66.44;94305.44;5004014;28;20049;-85
2023/05/13 00:19:23;;;;;;;7.00;3.17;;;;;;;9.39;69.15;94301.50;5003507;28;20034;-83
2023/05/13 00:21:49;;;;;;;10.38;4.03;;;;;;;9.21;71.53;94310.31;5003563;28;20053;-84
2023/05/13 00:24:15;;;;;;;8.57;4.40;;;;;;;9.08;74.68;94313.75;5003370;28;20045;-83
2023/05/13 00:26:40;;;;;;;8.60;3.78;;;;;;;8.95;75.82;94312.63;5003604;28;20252;-84
2023/05/13 00:29:06;;;;;;;14.15;4.93;;;;;;;8.75;76.79;94311.88;4986201;28;20375;-84
2023/05/13 00:31:32;;;;;;;9.80;3.90;;;;;;;8.57;78.04;94318.81;5003933;28;20343;-84
2023/05/13 00:33:57;;;;;;;11.60;4.35;;;;;;;8.53;78.56;94312.50;5003596;28;20036;-83
2023/05/13 00:36:22;;;;;;;8.38;4.10;;;;;;;8.46;79.69;94322.66;5004391;28;20674;-84
2023/05/13 00:38:48;;;;;;;8.80;4.20;;;;;;;8.38;80.53;94320.63;5007949;28;20031;-84
2023/05/13 00:41:14;;;;;;;8.65;4.93;;;;;;;8.34;80.66;94320.41;5007666;28;20033;-84
2023/05/13 00:43:39;;;;;;;12.70;5.22;;;;;;;8.33;80.82;94328.69;5007495;28;20033;-84
2023/05/13 00:46:05;;;;;;;9.52;5.20;;;;;;;8.33;80.29;94334.78;5007582;28;20014;-84
2023/05/13 00:48:32;;;;;;;9.90;4.68;;;;;;;8.33;80.65;94331.34;5007697;28;20029;-84
2023/05/13 00:50:58;;;;;;;12.15;5.13;;;;;;;8.28;80.84;94337.50;5007315;28;20093;-84
2023/05/13 00:53:24;;;;;;;14.10;5.05;;;;;;;8.33;80.36;94334.78;5007420;28;20054;-84
2023/05/13 00:55:49;;;;;;;8.07;4.68;;;;;;;8.42;79.47;94326.97;5007570;28;20072;-84
2023/05/13 00:58:16;;;;;;;7.85;4.43;;;;;;;8.53;77.96;94328.44;5007274;28;20039;-84
2023/05/13 01:01:08;;;;;;;11.95;4.55;;;;;;;8.56;76.68;94317.22;5007489;28;20033;-83
2023/05/13 01:03:54;;;;;;;7.33;4.20;;;;;;;8.62;75.95;94315.28;5007401;28;20022;-82
2023/05/13 01:06:31;;;;;;;7.20;4.25;;;;;;;8.73;76.10;94321.22;5006840;28;20261;-82
2023/05/13 01:09:20;;;;;;;8.48;5.15;;;;;;;8.86;76.88;94319.69;5007561;28;20249;-83
2023/05/13 01:11:49;;;;;;;10.10;4.43;;;;;;;8.93;77.00;94330.75;5006625;28;20049;-84
2023/05/13 01:14:21;;;;;;;8.35;4.45;;;;;;;9.00;77.25;94331.16;5006953;28;20030;-83
2023/05/13 01:17:07;;;;;;;;;;;;;;;9.09;77.10;94331.28;5007635;28;20093;-83
2023/05/13 01:19:53;;;;;;;8.93;5.88;;;;;;;9.12;77.30;94336.00;5006573;28;20104;-84
2023/05/13 01:22:19;;;;;;;13.15;4.32;;;;;;;9.17;77.46;94341.25;5006661;28;20037;-84
2023/05/13 01:24:44;;;;;;;10.32;5.35;;;;;;;9.16;76.65;94344.97;5007387;28;20311;-84
2023/05/13 01:27:10;;;;;;;7.88;5.18;;;;;;;9.20;76.53;94353.97;5006381;28;20057;-84
2023/05/13 01:29:36;;;;;;;9.55;4.68;;;;;;;9.19;76.37;94363.03;5006778;28;20061;-84
2023/05/13 01:32:06;;;;;;;13.77;5.32;;;;;;;9.20;75.79;94361.97;5006815;28;20042;-84
2023/05/13 01:34:33;;;;;;;10.23;4.63;;;;;;;9.09;74.28;94355.22;5007096;28;20026;-84
2023/05/13 01:36:59;;;;;;;14.13;4.57;;;;;;;9.03;74.30;94347.31;5006803;28;20022;-84
2023/05/13 01:39:25;;;;;;;11.18;4.55;;;;;;;9.02;75.14;94359.03;5006638;28;20291;-84
2023/05/13 01:41:51;;;;;;;7.40;4.45;;;;;;;8.97;75.04;94356.44;5006678;28;20025;-84
2023/05/13 01:44:16;;;;;;;14.02;4.22;;;;;;;8.85;74.64;94361.41;5006644;28;20440;-83
2023/05/13 01:46:43;;;;;;;7.78;4.72;;;;;;;8.88;75.77;94349.44;5006951;28;20098;-84
2023/05/13 01:49:09;;;;;;;10.07;4.60;;;;;;;8.84;75.65;94360.63;5006589;28;20333;-83
2023/05/13 01:51:35;;;;;;;12.40;4.80;;;;;;;8.74;75.60;94350.16;5006583;28;20048;-84
2023/05/13 01:54:01;;;;;;;7.82;4.65;;;;;;;8.68;76.18;94346.00;5006324;28;20042;-84
2023/05/13 01:56:26;;;;;;;9.80;6.03;;;;;;;8.70;76.54;94348.38;5005981;28;20060;-84
2023/05/13 01:58:52;;;;;;;12.82;5.50;;;;;;;8.68;77.20;94338.03;5006222;28;20277;-83
2023/05/13 02:01:17;;;;;;;11.20;5.38;;;;;;;8.74;77.44;94341.41;5006370;28;20014;-83
2023/05/13 02:03:43;;;;;;;12.55;5.50;;;;;;;8.73;77.38;94334.50;5006112;28;20014;-84
2023/05/13 02:06:09;;;;;;;11.90;5.57;;;;;;;8.75;77.54;94342.97;5006385;28;20228;-83
2023/05/13 02:08:35;;;;;;;11.43;5.97;;;;;;;8.76;77.19;94347.22;5006318;28;20053;-83
2023/05/13 02:11:01;;;;;;;10.48;5.63;;;;;;;8.74;77.79;94349.38;5006427;28;20050;-84
2023/05/13 02:13:27;;;;;;;10.40;5.25;;;;;;;8.70;77.69;94348.38;5006027;28;20267;-83
2023/05/13 02:15:53;;;;;;;8.43;5.15;;;;;;;8.68;78.21;94346.00;5006210;28;20034;-84
2023/05/13 02:18:18;;;;;;;11.90;5.25;;;;;;;8.72;77.66;94351.53;4988776;28;20077;-83
2023/05/13 02:20:45;;;;;;;14.70;5.07;;;;;;;8.76;77.71;94352.53;5005997;28;20025;-84
2023/05/13 02:23:10;;;;;;;10.00;5.05;;;;;;;8.83;77.95;94353.75;5006245;28;20026;-86
2023/05/13 02:25:36;;;;;;;10.90;6.68;;;;;;;8.87;78.24;94359.25;5005843;28;20030;-85
2023/05/13 02:28:01;;;;;;;17.08;7.78;;;;;;;8.92;78.52;94356.53;5006158;28;20018;-85
2023/05/13 02:30:27;;;;;;;21.42;7.68;;;;;;;8.98;78.68;94355.38;5005937;28;20029;-87
2023/05/13 02:32:53;;;;;;;18.50;7.25;;;;;;;9.01;78.80;94360.09;5005782;28;20620;-86
2023/05/13 02:35:18;;;;;;;18.55;7.65;;;;;;;9.06;78.32;94363.75;4988608;28;20034;-85
2023/05/13 02:37:45;;;;;;;11.40;6.20;;;;;;;9.10;77.94;94351.47;5005417;28;20366;-84
2023/05/13 02:40:11;;;;;;;14.38;6.95;;;;;;;9.18;78.21;94354.25;5005396;28;20033;-84
2023/05/13 02:42:36;;;;;;;20.15;6.55;;;;;;;9.21;77.98;94355.53;5005306;28;20045;-85
2023/05/13 02:45:02;;;;;;;26.70;10.13;;;;;;;9.25;77.76;94361.84;5005509;28;20032;-85
2023/05/13 02:47:27;;;;;;;15.57;6.65;;;;;;;9.29;77.69;94354.88;5005483;28;20029;-85
2023/05/13 02:49:55;;;;;;;12.20;5.70;;;;;;;9.28;77.17;94366.59;5005596;28;20033;-86
2023/05/13 02:52:20;;;;;;;8.57;4.60;;;;;;;9.24;74.71;94365.63;5005066;28;20095;-85
2023/05/13 02:54:46;;;;;;;9.73;5.25;;;;;;;9.19;73.90;94365.69;5005510;28;20348;-86
2023/05/13 02:57:11;;;;;;;11.57;5.85;;;;;;;9.13;73.35;94366.84;5005345;28;20026;-85
2023/05/13 02:59:36;;;;;;;9.27;4.93;;;;;;;9.08;74.80;94378.38;5004944;28;20046;-86
2023/05/13 03:02:02;;;;;;;8.68;5.60;;;;;;;8.99;75.45;94383.53;5005295;28;20069;-86
2023/05/13 03:04:28;;;;;;;13.65;5.72;;;;;;;8.96;76.13;94386.78;5005028;28;20121;-85
2023/05/13 03:06:53;;;;;;;10.05;5.95;;;;;;;8.94;76.00;94385.50;5005335;28;20037;-85
2023/05/13 03:09:18;;;;;;;10.55;5.40;;;;;;;8.93;76.04;94383.91;5005304;28;20089;-86
2023/05/13 03:11:44;;;;;;;12.73;6.68;;;;;;;8.91;76.74;94386.84;5005148;28;20022;-86
2023/05/13 03:14:09;;;;;;;11.23;5.97;;;;;;;8.88;76.78;94390.09;5004788;28;20030;-85
2023/05/13 03:16:35;;;;;;;11.10;6.53;;;;;;;8.84;76.48;94386.44;5004664;28;20081;-85
2023/05/13 03:19:00;;;;;;;11.05;6.15;;;;;;;8.79;77.20;94386.50;5005005;28;20025;-85
2023/05/13 03:21:26;;;;;;;12.00;6.05;;;;;;;8.79;77.93;94389.97;5004193;28;20094;-84
2023/05/13 03:23:52;;;;;;;13.70;5.70;;;;;;;8.81;78.50;94394.97;5004995;28;20026;-84
2023/05/13 03:26:17;;;;;;;12.52;5.93;;;;;;;8.83;78.28;94383.00;5004751;28;20026;-84
2023/05/13 03:28:42;;;;;;;10.30;5.65;;;;;;;8.86;77.69;94386.16;5004482;28;20057;-84
2023/05/13 03:31:11;;;;;;;9.70;5.63;;;;;;;8.83;76.40;94387.50;5005025;28;20022;-84
2023/05/13 03:33:36;;;;;;;10.77;5.78;;;;;;;8.87;75.95;94385.84;4988031;28;20042;-84
2023/05/13 03:36:02;;;;;;;11.70;5.13;;;;;;;8.94;75.78;94391.59;5005539;28;20093;-83
2023/05/13 03:38:28;;;;;;;12.73;5.50;;;;;;;8.96;74.34;94399.28;5004807;28;20037;-84
2023/05/13 03:40:53;;;;;;;8.63;4.70;;;;;;;8.97;73.89;94400.88;5004392;28;20037;-84
2023/05/13 03:43:19;;;;;;;9.95;5.03;;;;;;;9.00;74.16;94408.28;5004322;28;20076;-84
2023/05/13 03:45:47;;;;;;;8.52;4.82;;;;;;;9.03;73.41;94413.78;5004251;28;20336;-84
2023/05/13 03:48:12;;;;;;;9.82;5.15;;;;;;;9.11;74.99;94399.03;5004196;28;20026;-85
2023/05/13 03:50:38;;;;;;;7.18;4.32;;;;;;;9.14;75.23;94408.31;5004490;28;20098;-85
2023/05/13 03:53:03;;;;;;;8.13;4.78;;;;;;;9.19;75.77;94402.91;5003805;28;20046;-84
2023/05/13 03:55:31;;;;;;;11.90;5.82;;;;;;;9.28;75.69;94411.81;5004210;28;20335;-86
2023/05/13 03:57:56;;;;;;;11.77;4.97;;;;;;;9.34;74.45;94426.63;5002891;28;20056;-85
2023/05/13 04:00:22;;;;;;;9.93;4.55;;;;;;;9.39;74.50;94431.06;5004329;28;20026;-84
2023/05/13 04:02:47;;;;;;;8.02;4.95;;;;;;;9.36;74.00;94424.47;5004963;28;20213;-86
2023/05/13 04:05:13;;;;;;;9.90;5.93;;;;;;;9.28;73.59;94422.47;5004808;28;20033;-85
2023/05/13 04:07:39;;;;;;;10.95;5.38;;;;;;;9.29;74.38;94429.34;5004353;28;20205;-83
2023/05/13 04:10:05;;;;;;;9.07;5.10;;;;;;;9.26;74.25;94440.59;5004075;28;20053;-84
2023/05/13 04:12:32;;;;;;;9.13;4.32;;;;;;;9.26;74.01;94440.59;5003034;28;20312;-84
2023/05/13 04:14:57;;;;;;;11.40;6.13;;;;;;;9.25;73.94;94439.00;5003952;28;20030;-85
2023/05/13 04:17:23;;;;;;;9.20;5.18;;;;;;;9.23;74.47;94441.94;5004296;28;20297;-84
2023/05/13 04:19:51;;;;;;;10.18;5.40;;;;;;;9.28;75.33;94437.63;5004024;28;20068;-85
2023/05/13 04:22:17;;;;;;;11.43;5.72;;;;;;;9.33;75.23;94434.88;5003885;28;20019;-84
2023/05/13 04:24:42;;;;;;;12.90;5.43;;;;;;;9.37;75.33;94435.88;5003977;28;20045;-83
2023/05/13 04:27:08;;;;;;;9.10;5.47;;;;;;;9.41;75.05;94437.66;5003969;28;20276;-83
2023/05/13 04:29:33;;;;;;;11.32;5.47;;;;;;;9.37;74.70;94442.00;5004083;28;20014;-84
2023/05/13 04:31:59;;;;;;;8.60;5.07;;;;;;;9.28;73.90;94445.59;5004111;28;20030;-84
2023/05/13 04:34:24;;;;;;;9.02;5.07;;;;;;;9.24;73.23;94451.50;5003960;28;20014;-84
2023/05/13 04:36:50;;;;;;;11.10;5.38;;;;;;;9.21;73.54;94456.63;5003818;28;20260;-84
2023/05/13 04:39:15;;;;;;;9.40;4.93;;;;;;;9.19;72.93;94462.22;5003618;28;20030;-83
2023/05/13 04:41:41;;;;;;;9.38;4.97;;;;;;;9.29;73.69;94460.50;5004120;28;20093;-83
2023/05/13 04:44:06;;;;;;;9.25;5.28;;;;;;;9.35;73.90;94462.00;5004131;28;20015;-83
2023/05/13 04:46:32;;;;;;;13.25;5.80;;;;;;;9.48;74.29;94465.78;5003871;28;20101;-83
2023/05/13 04:48:57;;;;;;;13.20;6.53;;;;;;;9.60;73.38;94463.44;5003497;28;20029;-83
2023/05/13 04:51:22;;;;;;;13.38;5.90;;;;;;;9.74;73.23;94466.94;5003850;28;20255;-84
2023/05/13 04:53:48;;;;;;;10.52;5.15;;;;;;;9.85;71.70;94467.56;5003465;28;20046;-84
2023/05/13 04:56:15;;;;;;;10.07;5.13;;;;;;;9.95;71.63;94462.06;5003836;28;20296;-84
2023/05/13 04:58:40;;;;;;;14.68;6.07;;;;;;;10.02;70.65;94467.00;5003302;28;20021;-82
2023/05/13 05:01:05;;;;;;;11.32;5.30;;;;;;;10.04;70.56;94448.84;4985843;28;20022;-84
2023/05/13 05:03:31;;;;;;;10.05;5.45;;;;;;;10.12;69.76;94456.16;5004004;28;20026;-83
2023/05/13 05:05:56;;;;;;;8.40;5.40;;;;;;;10.17;69.94;94448.06;4986707;28;20267;-83
2023/05/13 05:08:22;;;;;;;14.77;5.45;;;;;;;10.29;70.43;94444.13;5003816;28;20022;-84
2023/05/13 05:10:47;;;;;;;11.82;5.97;;;;;;;10.40;69.54;94446.31;4986420;28;20030;-83
2023/05/13 05:13:13;;;;;;;25.52;6.45;;;;;;;10.40;67.82;94453.50;5003339;28;20029;-84
2023/05/13 05:15:38;;;;;;;17.13;7.45;;;;;;;10.36;67.18;94452.53;5003830;28;20014;-84
2023/05/13 05:18:05;;;;;;;14.35;5.40;;;;;;;10.34;67.68;94460.03;5003886;28;20026;-84
2023/05/13 05:20:30;;;;;;;12.52;5.63;;;;;;;10.32;68.16;94454.19;5003493;28;20041;-84
2023/05/13 05:22:56;;;;;;;22.65;7.28;;;;;;;10.32;68.65;94456.88;5005212;28;20022;-84
2023/05/13 05:25:23;;;;;;;16.55;6.45;;;;;;;10.33;69.22;94467.22;5006914;28;20026;-83
2023/05/13 05:27:49;;;;;;;32.20;10.30;;;;;;;10.41;67.86;94463.09;5006781;28;20030;-84
2023/05/13 05:30:14;;;;;;;13.77;5.88;;;;;;;10.39;67.90;94460.72;5007032;28;20049;-83
2023/05/13 05:32:40;;;;;;;10.80;4.78;;;;;;;10.41;66.40;94457.75;5007187;28;20038;-82
2023/05/13 05:35:06;;;;;;;12.27;4.88;;;;;;;10.47;65.54;94459.25;5007141;28;20250;-83
2023/05/13 05:37:32;;;;;;;16.35;5.65;;;;;;;10.55;65.59;94457.75;4989989;28;20022;-84
2023/05/13 05:39:57;;;;;;;13.93;5.13;;;;;;;10.58;64.58;94457.16;5006933;28;20049;-84
2023/05/13 05:42:23;;;;;;;12.90;5.97;;;;;;;10.67;65.14;94466.03;4989243;28;20030;-83
2023/05/13 05:44:48;;;;;;;15.25;6.10;;;;;;;10.78;65.48;94461.28;5006159;28;20018;-83
2023/05/13 05:47:13;;;;;;;18.90;6.18;;;;;;;10.80;65.40;94461.75;5006305;28;20026;-83
2023/05/13 05:49:39;;;;;;;11.40;5.70;;;;;;;10.92;65.52;94462.03;5006610;28;20034;-83
2023/05/13 05:52:05;;;;;;;11.02;6.25;;;;;;;11.03;65.21;94459.94;5006598;28;20323;-83
2023/05/13 05:54:30;;;;;;;18.65;7.53;;;;;;;11.15;65.81;94468.19;5006334;28;20046;-83
2023/05/13 05:56:55;;;;;;;16.70;6.47;;;;;;;11.17;65.34;94465.22;5006538;28;20026;-83
2023/05/13 05:59:21;;;;;;;17.50;7.35;;;;;;;11.09;65.73;94473.94;5006699;28;20029;-84
2023/05/13 06:01:46;;;;;;;14.75;6.20;;;;;;;11.17;66.53;94473.22;5006550;28;20308;-83
2023/05/13 06:04:12;;;;;;;12.30;6.07;;;;;;;11.31;65.65;94473.19;5006664;28;20038;-83
2023/05/13 06:06:39;;;;;;;11.63;6.72;;;;;;;11.31;64.45;94471.31;4989251;28;20026;-85
2023/05/13 06:09:06;;;;;;;13.77;6.70;;;;;;;11.22;63.91;94475.81;5007460;28;20272;-84
2023/05/13 06:11:32;;;;;;;17.25;6.55;;;;;;;11.16;64.47;94474.34;5006401;28;20069;-83
2023/05/13 06:13:57;;;;;;;9.98;5.78;;;;;;;11.19;64.91;94476.38;5006640;28;20037;-85
2023/05/13 06:16:23;;;;;;;10.35;6.00;;;;;;;11.17;64.16;94479.38;5006419;28;20027;-85
2023/05/13 06:18:48;;;;;;;7.97;5.50;;;;;;;11.14;64.61;94476.53;5006984;28;20030;-86
2023/05/13 06:21:14;;;;;;;13.48;5.53;;;;;;;11.10;65.17;94475.53;5006490;28;20101;-86
2023/05/13 06:23:39;;;;;;;13.50;6.00;;;;;;;11.14;64.40;94476.53;5006258;28;20010;-86
2023/05/13 06:26:05;;;;;;;13.80;6.32;;;;;;;11.00;63.15;94472.00;5006273;28;20018;-86
2023/05/13 06:28:30;;;;;;;14.50;5.90;;;;;;;10.99;63.41;94477.63;5006465;28;20034;-87
2023/05/13 06:30:56;;;;;;;9.90;5.15;;;;;;;10.97;63.64;94477.94;5005321;28;20045;-85
2023/05/13 06:33:21;;;;;;;11.90;5.53;;;;;;;10.95;63.03;94488.13;5005916;28;20053;-84
2023/05/13 06:35:48;;;;;;;31.80;8.48;;;;;;;10.91;64.19;94492.47;5005329;28;20358;-85
2023/05/13 06:38:20;;;;;;;21.20;5.95;;;;;;;10.89;64.17;94491.19;5011863;28;20041;-85
2023/05/13 06:40:46;;;;;;;;;;;;;;;10.88;63.64;94493.06;5007400;28;20101;-85
2023/05/13 06:43:13;;;;;;;17.40;6.72;;;;;;;10.87;62.26;94488.03;5008608;28;20073;-85
2023/05/13 06:45:38;;;;;;;31.30;7.75;;;;;;;10.87;62.58;94486.16;4989396;28;20034;-87
2023/05/13 06:48:04;;;;;;;24.05;7.93;;;;;;;10.94;63.38;94486.53;5006487;28;20232;-87
2023/05/13 06:50:30;;;;;;;22.00;6.22;;;;;;;11.06;63.13;94490.56;5007500;28;20329;-84
2023/05/13 06:52:56;;;;;;;15.82;5.78;;;;;;;11.13;61.67;94494.38;5005549;28;20101;-86
2023/05/13 06:55:21;;;;;;;10.75;5.00;;;;;;;11.19;61.75;94484.38;5005621;28;20482;-87
2023/05/13 06:57:46;;;;;;;18.05;5.25;;;;;;;11.29;61.66;94483.38;5005163;28;20206;-80
2023/05/13 07:00:13;;;;;;;13.43;6.30;;;;;;;11.52;62.02;94492.19;5004853;28;20049;-80
2023/05/13 07:02:38;;;;;;;16.50;5.60;;;;;;;11.60;59.91;94488.78;4987660;28;20028;-80
2023/05/13 07:05:04;;;;;;;11.77;5.47;;;;;;;11.70;58.94;94488.53;5004523;28;20054;-78
2023/05/13 07:07:30;;;;;;;11.27;5.78;;;;;;;11.77;59.16;94491.59;5004459;28;20097;-78
2023/05/13 07:09:55;;;;;;;16.63;5.53;;;;;;;11.90;59.11;94489.97;5004454;28;20034;-80
2023/05/13 07:12:21;;;;;;;13.77;5.95;;;;;;;11.96;58.40;94491.41;4986889;28;20041;-79
2023/05/13 07:14:47;;;;;;;15.60;5.63;;;;;;;12.07;58.01;94489.28;5003841;28;20094;-79
2023/05/13 07:17:12;;;;;;;8.07;5.28;;;;;;;12.20;57.50;94493.75;5004186;28;20026;-79
2023/05/13 07:19:37;;;;;;;17.05;5.72;;;;;;;12.42;58.69;94500.91;5004463;28;20026;-79
2023/05/13 07:22:03;;;;;;;12.05;5.90;;;;;;;12.63;57.37;94505.69;5004854;28;20217;-79
2023/05/13 07:24:29;;;;;;;9.07;5.70;;;;;;;12.65;55.43;94515.00;5004361;28;20266;-78
2023/05/13 07:26:54;;;;;;;19.08;6.22;;;;;;;12.81;56.70;94511.91;5004246;28;20025;-80
2023/05/13 07:29:20;;;;;;;12.40;6.00;;;;;;;12.94;55.55;94510.19;5004405;28;20198;-79
2023/05/13 07:31:48;;;;;;;14.52;5.70;;;;;;;13.01;57.60;94511.31;5004291;28;20022;-78
2023/05/13 07:34:13;;;;;;;14.70;6.72;;;;;;;13.10;56.76;94516.69;5004346;28;20045;-78
2023/05/13 07:36:39;;;;;;;13.68;6.43;;;;;;;13.16;56.34;94511.97;5004442;28;20093;-79
2023/05/13 07:39:07;;;;;;;14.73;6.25;;;;;;;13.17;56.24;94506.31;4986887;28;20037;-79
2023/05/13 07:41:33;;;;;;;16.05;7.07;;;;;;;13.20;56.10;94507.56;5003953;28;20077;-79
2023/05/13 07:43:58;;;;;;;14.55;6.90;;;;;;;13.18;56.05;94505.19;5003631;28;20034;-78
2023/05/13 07:46:24;;;;;;;12.80;6.53;;;;;;;13.11;55.42;94509.44;5003507;28;20030;-78
2023/05/13 07:48:49;;;;;;;16.77;8.85;;;;;;;13.11;55.70;94510.25;4986712;28;20030;-79
2023/05/13 07:51:17;;;;;;;16.45;7.70;;;;;;;13.14;55.06;94508.81;5003911;28;20325;-79
2023/05/13 07:53:44;;;;;;;11.75;6.75;;;;;;;12.99;55.63;94513.50;5002992;28;20057;-78
2023/05/13 07:56:09;;;;;;;14.45;7.10;;;;;;;12.94;56.78;94508.28;5003701;28;20068;-81
2023/05/13 07:58:36;;;;;;;18.60;7.40;;;;;;;13.07;57.53;94509.28;5003362;28;20049;-80
2023/05/13 08:01:02;;;;;;;14.18;7.35;;;;;;;13.23;57.39;94506.94;5003701;28;20351;-87
2023/05/13 08:03:28;;;;;;;25.73;9.00;;;;;;;13.41;57.09;94508.56;5003242;28;20093;-81
2023/05/13 08:05:53;;;;;;;19.80;10.05;;;;;;;13.62;57.32;94498.00;5004519;28;20358;-84
2023/05/13 08:08:19;;;;;;;26.10;7.80;;;;;;;13.76;57.38;94503.19;5004377;28;20326;-85
2023/05/13 08:10:45;;;;;;;12.27;7.38;;;;;;;13.92;56.59;94497.31;5004556;28;20093;-85
2023/05/13 08:13:10;;;;;;;20.10;8.40;;;;;;;14.01;55.26;94501.56;4986766;28;20057;-86
2023/05/13 08:15:37;;;;;;;20.08;8.88;;;;;;;13.99;54.82;94497.66;5004276;28;20041;-85
2023/05/13 08:18:02;;;;;;;17.42;9.77;;;;;;;14.07;54.73;94496.06;4985881;28;20026;-85
2023/05/13 08:20:28;;;;;;;15.48;8.23;;;;;;;14.14;54.71;94489.06;5004469;28;20045;-85
2023/05/13 08:23:00;;;;;;;21.83;8.00;;;;;;;14.12;54.82;94488.59;5004453;28;20090;-85
2023/05/13 08:25:34;;;;;;;18.17;7.70;;;;;;;14.10;54.57;94496.19;5004023;28;20026;-85
2023/05/13 08:28:03;;;;;;;21.83;8.65;;;;;;;14.05;55.03;94491.78;5003140;28;20269;-85
2023/05/13 08:30:28;;;;;;;15.35;8.18;;;;;;;13.87;55.50;94486.78;5003205;28;20066;-85
2023/05/13 08:32:54;;;;;;;18.45;9.00;;;;;;;13.80;57.09;94482.69;5003454;28;20038;-85
2023/05/13 08:35:20;;;;;;;20.75;7.70;;;;;;;13.76;56.12;94475.59;5002417;28;20121;-85
2023/05/13 08:37:46;;;;;;;15.13;7.57;;;;;;;13.77;56.67;94477.97;5002459;28;20093;-85
2023/05/13 08:40:12;;;;;;;22.58;8.88;;;;;;;13.85;57.80;94481.75;5002697;28;20023;-86
2023/05/13 08:42:41;;;;;;;16.52;8.68;;;;;;;13.98;56.88;94477.28;5002749;28;20029;-85
2023/05/13 08:45:08;;;;;;;27.33;8.80;;;;;;;14.12;57.00;94471.75;5002503;28;20225;-85
2023/05/13 08:47:54;;;;;;;21.90;9.05;;;;;;;14.33;55.98;94474.50;5002948;28;20057;-85
2023/05/13 08:50:23;;;;;;;17.55;8.40;;;;;;;14.41;55.31;94479.03;5004115;28;20030;-85
2023/05/13 08:52:54;;;;;;;19.13;8.55;;;;;;;14.50;55.73;94474.44;5004500;28;20097;-86
2023/05/13 08:55:20;;;;;;;18.17;8.85;;;;;;;14.52;53.96;94472.22;5004391;28;20117;-85
2023/05/13 08:57:46;;;;;;;15.43;7.72;;;;;;;14.55;54.54;94474.28;5005936;28;20068;-86
2023/05/13 09:00:13;;;;;;;20.27;8.38;;;;;;;14.64;54.67;94467.00;5008586;28;20042;-85
2023/05/13 09:02:39;;;;;;;21.15;7.90;;;;;;;14.82;54.18;94464.22;5007916;28;20205;-87
2023/05/13 09:05:07;;;;;;;19.38;8.15;;;;;;;14.95;54.07;94457.81;5007971;28;20053;-85
2023/05/13 09:07:34;;;;;;;18.30;8.38;;;;;;;15.18;54.44;94455.63;4991202;28;20026;-87
2023/05/13 09:10:00;;;;;;;12.98;6.78;;;;;;;15.32;53.34;94452.66;4990285;28;20308;-87
2023/05/13 09:12:50;;;;;;;18.88;8.43;;;;;;;15.55;51.28;94447.75;5007994;28;20045;-87
2023/05/13 09:15:21;;;;;;;16.63;7.60;;;;;;;15.46;51.54;94441.66;5008234;28;20217;-85
2023/05/13 09:17:52;;;;;;;17.40;7.97;;;;;;;15.56;52.13;94451.22;5008044;28;20026;-87
2023/05/13 09:20:20;;;;;;;11.80;7.55;;;;;;;15.72;52.14;94444.13;4989907;28;20322;-88
2023/05/13 09:22:52;;;;;;;14.38;7.75;;;;;;;15.88;51.73;94438.16;5007746;28;20026;-87
2023/05/13 09:25:18;;;;;;;;;;;;;;;15.85;51.15;94436.88;5008503;28;20037;-89
2023/05/13 09:27:49;;;;;;;23.13;7.10;;;;;;;15.92;50.65;94447.13;5007695;28;19944;-85
2023/05/13 09:30:15;;;;;;;15.68;7.45;;;;;;;15.86;51.46;94448.44;5007583;28;20033;-87
2023/05/13 09:32:41;;;;;;;14.25;7.13;;;;;;;16.02;51.53;94454.75;5007287;28;20313;-86
2023/05/13 09:35:18;;;;;;;10.57;6.80;;;;;;;16.12;48.45;94446.25;5007283;28;20098;-85
2023/05/13 09:37:47;;;;;;;11.82;7.28;;;;;;;16.14;49.12;94452.09;5007521;28;20026;-87
2023/05/13 09:40:16;;;;;;;9.70;5.93;;;;;;;16.14;48.10;94448.59;5007400;28;20189;-86
2023/05/13 09:42:43;;;;;;;10.13;5.70;;;;;;;16.12;48.81;94446.25;5007631;28;20042;-86
2023/05/13 09:45:10;;;;;;;12.38;5.80;;;;;;;16.17;49.17;94437.97;5007213;28;20097;-86
2023/05/13 09:47:36;;;;;;;13.05;5.57;;;;;;;16.45;48.95;94430.03;5006672;28;20033;-86
2023/05/13 09:50:05;;;;;;;11.95;5.60;;;;;;;16.80;47.28;94434.97;5007266;28;20050;-86
2023/05/13 09:52:31;;;;;;;15.85;7.07;;;;;;;17.11;46.95;94432.81;5006587;28;20034;-86
2023/05/13 09:54:58;;;;;;;12.95;5.68;;;;;;;17.48;46.43;94438.88;5006762;28;20030;-86
2023/05/13 09:57:27;;;;;;;13.68;5.45;;;;;;;17.74;45.38;94435.75;5006925;28;20065;-87
2023/05/13 10:00:06;;;;;;;9.68;5.00;;;;;;;18.04;45.54;94430.00;5006387;28;20041;-86
2023/05/13 10:02:35;;;;;;;8.48;5.55;;;;;;;18.37;45.65;94434.28;5007507;28;20018;-86
2023/05/13 10:05:01;;;;;;;11.57;4.90;;;;;;;18.66;44.63;94433.03;5007292;28;20045;-86
2023/05/13 10:07:27;;;;;;;13.32;5.25;;;;;;;18.91;42.70;94433.66;5006771;28;20030;-87
2023/05/13 10:09:59;;;;;;;12.40;5.28;;;;;;;19.02;40.70;94434.69;5005095;28;20026;-84
2023/05/13 10:12:25;;;;;;;14.40;4.75;;;;;;;18.97;41.81;94434.97;5006632;28;20133;-86
2023/05/13 10:14:52;;;;;;;11.90;4.90;;;;;;;18.87;43.48;94435.50;5006206;28;20034;-84
2023/05/13 10:17:23;;;;;;;12.00;5.07;;;;;;;18.69;41.94;94437.00;5006155;28;20032;-85
2023/05/13 10:19:50;;;;;;;22.27;5.53;;;;;;;18.57;41.76;94435.94;5006243;28;20313;-84
2023/05/13 10:22:28;;;;;;;20.35;7.40;;;;;;;18.37;43.38;94442.38;5005736;28;20133;-84
2023/05/13 10:24:56;;;;;;;23.55;6.65;;;;;;;18.15;42.59;94433.75;5005983;28;20279;-85
2023/05/13 10:27:29;;;;;;;18.35;5.57;;;;;;;18.12;42.86;94433.69;5006003;28;20057;-85
2023/05/13 10:29:57;;;;;;;20.73;5.15;;;;;;;18.12;42.64;94426.38;5005885;28;20023;-85
2023/05/13 10:32:28;;;;;;;10.90;5.07;;;;;;;18.14;42.93;94426.03;5006460;28;20268;-85
2023/05/13 10:35:00;;;;;;;11.40;5.13;;;;;;;18.17;43.71;94426.09;5006861;28;20089;-85
2023/05/13 10:37:53;;;;;;;9.95;5.22;;;;;;;18.15;44.67;94431.03;5006605;28;20022;-85
2023/05/13 10:40:43;;;;;;;12.02;5.45;;;;;;;18.07;45.33;94429.31;5006307;28;20280;-85
2023/05/13 10:43:28;;;;;;;9.57;5.60;;;;;;;17.94;44.68;94436.69;5006149;28;20022;-85
2023/05/13 10:45:58;;;;;;;11.40;5.07;;;;;;;17.86;44.91;94432.22;5006646;28;20124;-85
2023/05/13 10:48:24;;;;;;;6.80;4.47;;;;;;;17.79;45.70;94443.59;5005714;28;20034;-85
2023/05/13 10:50:52;;;;;;;13.23;6.07;;;;;;;17.80;45.09;94436.28;5005647;28;20029;-85
2023/05/13 10:54:06;;;;;;;10.80;5.70;;;;;;;17.83;46.37;94439.09;5005147;28;20044;-85
2023/05/13 10:56:32;;;;;;;10.35;5.00;;;;;;;18.06;46.96;94435.84;4976573;28;20042;-85
2023/05/13 10:59:04;;;;;;;13.93;6.75;;;;;;;18.14;45.55;94436.81;5007860;28;20045;-85
2023/05/13 11:01:34;;;;;;;10.27;5.40;;;;;;;18.20;45.91;94447.00;5006708;28;20252;-86
2023/05/13 11:04:02;;;;;;;16.30;5.38;;;;;;;18.33;46.12;94445.00;5005641;28;20050;-85
2023/05/13 11:06:42;;;;;;;17.55;5.88;;;;;;;18.53;46.19;94443.16;5005434;28;20023;-87
2023/05/13 11:09:11;;;;;;;13.75;4.88;;;;;;;18.75;45.51;94438.28;5005567;28;20022;-86
2023/05/13 11:11:37;;;;;;;11.50;5.25;;;;;;;18.95;44.05;94442.63;5005136;28;20061;-85
2023/05/13 11:14:07;;;;;;;12.10;5.65;;;;;;;19.14;45.30;94433.00;5005688;28;20025;-86
2023/05/13 11:16:33;;;;;;;12.40;5.97;;;;;;;19.39;43.41;94431.59;5005190;28;20022;-86
2023/05/13 11:19:01;;;;;;;10.02;4.70;;;;;;;19.51;42.98;94429.91;5005285;28;20022;-85
2023/05/13 11:21:38;;;;;;;9.70;5.80;;;;;;;19.52;42.67;94421.44;5004650;28;20014;-86
2023/05/13 11:24:05;;;;;;;22.40;5.30;;;;;;;19.73;43.71;94418.38;5005144;28;20106;-86
2023/05/13 11:26:44;;;;;;;10.88;5.50;;;;;;;19.93;42.02;94424.56;5004516;28;20061;-86
2023/05/13 11:29:09;;;;;;;9.48;4.78;;;;;;;20.04;42.21;94411.22;5004884;28;20217;-85
2023/05/13 11:31:49;;;;;;;8.38;4.95;;;;;;;20.14;41.24;94407.91;5006164;28;20030;-85
2023/05/13 11:34:16;;;;;;;8.30;5.90;;;;;;;20.30;41.88;94407.03;5004934;28;20033;-85